sensor_id;sensor_type;location;lat;lon;timestamp;temperature;humidity
6293;DHT22;3179;54.350;10.102;2024-02-16T00:02:23;13.20;99.90
6293;DHT22;3179;54.350;10.102;2024-02-16T00:04:50;13.20;99.90
6293;DHT22;3179;54.350;10.102;2024-02-16T00:07:16;13.20;99.90
6293;DHT22;3179;54.350;10.102;2024-02-16T00:09:43;13.20;99.90
6293;DHT22;3179;54.350;10.102;2024-02-16T00:12:12;13.20;99.90
6293;DHT22;3179;54.350;10.102;2024-02-16T00:14:40;13.20;99.90
6293;DHT22;3179;54.350;10.102;2024-02-16T00:17:07;13.20;99.90
6293;DHT22;3179;54.350;10.102;2024-02-16T00:19:35;13.20;99.90
6293;DHT22;3179;54.350;10.102;2024-02-16T00:22:02;13.20;99.90
6293;DHT22;3179;54.350;10.102;2024-02-16T00:24:29;13.20;99.90
6293;DHT22;3179;54.350;10.102;2024-02-16T00:26:57;13.20;99.90
6293;DHT22;3179;54.350;10.102;2024-02-16T00:29:25;13.10;99.90
6293;DHT22;3179;54.350;10.102;2024-02-16T00:31:52;13.10;99.90
6293;DHT22;3179;54.350;10.102;2024-02-16T00:34:19;13.10;99.90
6293;DHT22;3179;54.350;10.102;2024-02-16T00:36:46;13.10;99.90
6293;DHT22;3179;54.350;10.102;2024-02-16T00:39:12;13.10;99.90
6293;DHT22;3179;54.350;10.102;2024-02-16T00:41:39;13.10;99.90
6293;DHT22;3179;54.350;10.102;2024-02-16T00:44:06;13.10;99.90
6293;DHT22;3179;54.350;10.102;2024-02-16T00:46:35;13.10;99.90
6293;DHT22;3179;54.350;10.102;2024-02-16T00:49:03;13.00;99.90
6293;DHT22;3179;54.350;10.102;2024-02-16T00:51:30;13.00;99.90
6293;DHT22;3179;54.350;10.102;2024-02-16T00:53:57;13.00;99.90
6293;DHT22;3179;54.350;10.102;2024-02-16T00:56:24;13.00;99.90
6293;DHT22;3179;54.350;10.102;2024-02-16T00:58:50;13.00;99.90
6293;DHT22;3179;54.350;10.102;2024-02-16T01:01:17;13.00;99.90
6293;DHT22;3179;54.350;10.102;2024-02-16T01:03:45;13.00;99.90
6293;DHT22;3179;54.350;10.102;2024-02-16T01:06:12;13.00;99.90
6293;DHT22;3179;54.350;10.102;2024-02-16T01:08:39;12.90;99.90
6293;DHT22;3179;54.350;10.102;2024-02-16T01:11:06;12.90;99.90
6293;DHT22;3179;54.350;10.102;2024-02-16T01:13:33;12.90;99.90
6293;DHT22;3179;54.350;10.102;2024-02-16T01:16:00;12.90;99.90
6293;DHT22;3179;54.350;10.102;2024-02-16T01:18:28;12.90;99.90
6293;DHT22;3179;54.350;10.102;2024-02-16T01:20:57;12.90;99.90
6293;DHT22;3179;54.350;10.102;2024-02-16T01:23:24;12.90;99.90
6293;DHT22;3179;54.350;10.102;2024-02-16T01:25:51;12.90;99.90
6293;DHT22;3179;54.350;10.102;2024-02-16T01:28:17;12.90;99.90
6293;DHT22;3179;54.350;10.102;2024-02-16T01:30:44;12.90;99.90
6293;DHT22;3179;54.350;10.102;2024-02-16T01:33:11;12.90;99.90
6293;DHT22;3179;54.350;10.102;2024-02-16T01:35:39;12.90;99.90
6293;DHT22;3179;54.350;10.102;2024-02-16T01:38:07;12.90;99.90
6293;DHT22;3179;54.350;10.102;2024-02-16T01:40:34;12.90;99.90
6293;DHT22;3179;54.350;10.102;2024-02-16T01:43:01;12.90;99.90
6293;DHT22;3179;54.350;10.102;2024-02-16T01:45:27;12.90;99.90
6293;DHT22;3179;54.350;10.102;2024-02-16T01:47:54;12.90;99.90
6293;DHT22;3179;54.350;10.102;2024-02-16T01:50:22;12.90;99.90
6293;DHT22;3179;54.350;10.102;2024-02-16T01:52:49;12.80;99.90
6293;DHT22;3179;54.350;10.102;2024-02-16T01:55:18;12.80;99.90
6293;DHT22;3179;54.350;10.102;2024-02-16T01:57:47;12.80;99.90
6293;DHT22;3179;54.350;10.102;2024-02-16T02:00:15;12.80;99.90
6293;DHT22;3179;54.350;10.102;2024-02-16T02:02:44;12.80;99.90
6293;DHT22;3179;54.350;10.102;2024-02-16T02:05:12;12.80;99.90
6293;DHT22;3179;54.350;10.102;2024-02-16T02:07:40;12.80;99.90
6293;DHT22;3179;54.350;10.102;2024-02-16T02:10:08;12.80;99.90
6293;DHT22;3179;54.350;10.102;2024-02-16T02:12:36;12.80;99.90
6293;DHT22;3179;54.350;10.102;2024-02-16T02:15:04;12.80;99.90
6293;DHT22;3179;54.350;10.102;2024-02-16T02:17:31;12.80;99.90
6293;DHT22;3179;54.350;10.102;2024-02-16T02:19:58;12.80;99.90
6293;DHT22;3179;54.350;10.102;2024-02-16T02:22:26;12.80;99.90
6293;DHT22;3179;54.350;10.102;2024-02-16T02:24:53;12.80;99.90
6293;DHT22;3179;54.350;10.102;2024-02-16T02:27:21;12.80;99.90
6293;DHT22;3179;54.350;10.102;2024-02-16T02:29:48;12.80;99.90
6293;DHT22;3179;54.350;10.102;2024-02-16T02:32:15;12.80;99.90
6293;DHT22;3179;54.350;10.102;2024-02-16T02:34:42;12.80;99.90
6293;DHT22;3179;54.350;10.102;2024-02-16T02:37:09;12.80;99.90
6293;DHT22;3179;54.350;10.102;2024-02-16T02:39:38;12.80;99.90
6293;DHT22;3179;54.350;10.102;2024-02-16T02:42:05;12.80;99.90
6293;DHT22;3179;54.350;10.102;2024-02-16T02:44:33;12.80;99.90
6293;DHT22;3179;54.350;10.102;2024-02-16T02:47:00;12.80;99.90
6293;DHT22;3179;54.350;10.102;2024-02-16T02:49:28;12.80;99.90
6293;DHT22;3179;54.350;10.102;2024-02-16T02:51:54;12.80;99.90
6293;DHT22;3179;54.350;10.102;2024-02-16T02:54:21;12.80;99.90
6293;DHT22;3179;54.350;10.102;2024-02-16T02:56:49;12.70;99.90
6293;DHT22;3179;54.350;10.102;2024-02-16T02:59:16;12.70;99.90
6293;DHT22;3179;54.350;10.102;2024-02-16T03:01:43;12.80;99.90
6293;DHT22;3179;54.350;10.102;2024-02-16T03:04:11;12.80;99.90
6293;DHT22;3179;54.350;10.102;2024-02-16T03:06:38;12.70;99.90
6293;DHT22;3179;54.350;10.102;2024-02-16T03:09:04;12.70;99.90
6293;DHT22;3179;54.350;10.102;2024-02-16T03:11:32;12.80;99.90
6293;DHT22;3179;54.350;10.102;2024-02-16T03:14:00;12.70;99.90
6293;DHT22;3179;54.350;10.102;2024-02-16T03:16:27;12.80;99.90
6293;DHT22;3179;54.350;10.102;2024-02-16T03:18:55;12.70;99.90
6293;DHT22;3179;54.350;10.102;2024-02-16T03:21:21;12.70;99.90
6293;DHT22;3179;54.350;10.102;2024-02-16T03:23:48;12.70;99.90
6293;DHT22;3179;54.350;10.102;2024-02-16T03:26:15;12.70;99.90
6293;DHT22;3179;54.350;10.102;2024-02-16T03:28:44;12.70;99.90
6293;DHT22;3179;54.350;10.102;2024-02-16T03:31:17;12.70;99.90
6293;DHT22;3179;54.350;10.102;2024-02-16T03:33:44;12.70;99.90
6293;DHT22;3179;54.350;10.102;2024-02-16T03:36:10;12.70;99.90
6293;DHT22;3179;54.350;10.102;2024-02-16T03:38:41;12.70;99.90
6293;DHT22;3179;54.350;10.102;2024-02-16T03:41:09;12.70;99.90
6293;DHT22;3179;54.350;10.102;2024-02-16T03:43:38;12.70;99.90
6293;DHT22;3179;54.350;10.102;2024-02-16T03:46:05;12.70;99.90
6293;DHT22;3179;54.350;10.102;2024-02-16T03:48:34;12.70;99.90
6293;DHT22;3179;54.350;10.102;2024-02-16T03:51:01;12.70;99.90
6293;DHT22;3179;54.350;10.102;2024-02-16T03:53:28;12.70;99.90
6293;DHT22;3179;54.350;10.102;2024-02-16T03:55:55;12.70;99.90
6293;DHT22;3179;54.350;10.102;2024-02-16T03:58:23;12.70;99.90
6293;DHT22;3179;54.350;10.102;2024-02-16T04:00:50;12.70;99.90
6293;DHT22;3179;54.350;10.102;2024-02-16T04:03:18;12.60;99.90
6293;DHT22;3179;54.350;10.102;2024-02-16T04:05:46;12.60;99.90
6293;DHT22;3179;54.350;10.102;2024-02-16T04:08:13;12.60;99.90
6293;DHT22;3179;54.350;10.102;2024-02-16T04:10:40;12.60;99.90
6293;DHT22;3179;54.350;10.102;2024-02-16T04:13:07;12.60;99.90
6293;DHT22;3179;54.350;10.102;2024-02-16T04:15:33;12.60;99.90
6293;DHT22;3179;54.350;10.102;2024-02-16T04:18:00;12.60;99.90
6293;DHT22;3179;54.350;10.102;2024-02-16T04:20:27;12.60;99.90
6293;DHT22;3179;54.350;10.102;2024-02-16T04:22:55;12.60;99.90
6293;DHT22;3179;54.350;10.102;2024-02-16T04:25:22;12.60;99.90
6293;DHT22;3179;54.350;10.102;2024-02-16T04:27:49;12.60;99.90
6293;DHT22;3179;54.350;10.102;2024-02-16T04:30:16;12.60;99.90
6293;DHT22;3179;54.350;10.102;2024-02-16T04:32:43;12.60;99.90
6293;DHT22;3179;54.350;10.102;2024-02-16T04:35:10;12.60;99.90
6293;DHT22;3179;54.350;10.102;2024-02-16T04:37:38;12.60;99.90
6293;DHT22;3179;54.350;10.102;2024-02-16T04:40:07;12.60;99.90
6293;DHT22;3179;54.350;10.102;2024-02-16T04:42:37;12.60;99.90
6293;DHT22;3179;54.350;10.102;2024-02-16T04:45:06;12.60;99.90
6293;DHT22;3179;54.350;10.102;2024-02-16T04:47:34;12.60;99.90
6293;DHT22;3179;54.350;10.102;2024-02-16T04:50:00;12.50;99.90
6293;DHT22;3179;54.350;10.102;2024-02-16T04:52:28;12.60;99.90
6293;DHT22;3179;54.350;10.102;2024-02-16T04:54:55;12.50;99.90
6293;DHT22;3179;54.350;10.102;2024-02-16T04:57:23;12.50;99.90
6293;DHT22;3179;54.350;10.102;2024-02-16T04:59:50;12.50;99.90
6293;DHT22;3179;54.350;10.102;2024-02-16T05:02:17;12.50;99.90
6293;DHT22;3179;54.350;10.102;2024-02-16T05:04:44;12.50;99.90
6293;DHT22;3179;54.350;10.102;2024-02-16T05:07:11;12.50;99.90
6293;DHT22;3179;54.350;10.102;2024-02-16T05:09:37;12.50;99.90
6293;DHT22;3179;54.350;10.102;2024-02-16T05:12:06;12.50;99.90
6293;DHT22;3179;54.350;10.102;2024-02-16T05:14:35;12.50;99.90
6293;DHT22;3179;54.350;10.102;2024-02-16T05:17:02;12.50;99.90
6293;DHT22;3179;54.350;10.102;2024-02-16T05:19:32;12.50;99.90
6293;DHT22;3179;54.350;10.102;2024-02-16T05:22:00;12.50;99.90
6293;DHT22;3179;54.350;10.102;2024-02-16T05:24:27;12.50;99.90
6293;DHT22;3179;54.350;10.102;2024-02-16T05:26:54;12.50;99.90
6293;DHT22;3179;54.350;10.102;2024-02-16T05:29:21;12.50;99.90
6293;DHT22;3179;54.350;10.102;2024-02-16T05:31:52;12.50;99.90
6293;DHT22;3179;54.350;10.102;2024-02-16T05:34:19;12.50;99.90
6293;DHT22;3179;54.350;10.102;2024-02-16T05:36:46;12.50;99.90
6293;DHT22;3179;54.350;10.102;2024-02-16T05:39:13;12.40;99.90
6293;DHT22;3179;54.350;10.102;2024-02-16T05:41:52;12.40;99.90
6293;DHT22;3179;54.350;10.102;2024-02-16T05:44:19;12.40;99.90
6293;DHT22;3179;54.350;10.102;2024-02-16T05:46:46;12.40;99.90
6293;DHT22;3179;54.350;10.102;2024-02-16T05:49:14;12.40;99.90
6293;DHT22;3179;54.350;10.102;2024-02-16T05:51:41;12.40;99.90
6293;DHT22;3179;54.350;10.102;2024-02-16T05:54:25;12.40;99.90
6293;DHT22;3179;54.350;10.102;2024-02-16T05:56:52;12.30;99.90
6293;DHT22;3179;54.350;10.102;2024-02-16T05:59:19;12.40;99.90
6293;DHT22;3179;54.350;10.102;2024-02-16T06:01:47;12.40;99.90
6293;DHT22;3179;54.350;10.102;2024-02-16T06:04:15;12.40;99.90
6293;DHT22;3179;54.350;10.102;2024-02-16T06:06:42;12.40;99.90
6293;DHT22;3179;54.350;10.102;2024-02-16T06:09:09;12.30;99.90
6293;DHT22;3179;54.350;10.102;2024-02-16T06:11:36;12.30;99.90
6293;DHT22;3179;54.350;10.102;2024-02-16T06:14:04;12.30;99.90
6293;DHT22;3179;54.350;10.102;2024-02-16T06:16:30;12.30;99.90
6293;DHT22;3179;54.350;10.102;2024-02-16T06:18:57;12.30;99.90
6293;DHT22;3179;54.350;10.102;2024-02-16T06:21:25;12.30;99.90
6293;DHT22;3179;54.350;10.102;2024-02-16T06:23:52;12.30;99.90
6293;DHT22;3179;54.350;10.102;2024-02-16T06:26:20;12.30;99.90
6293;DHT22;3179;54.350;10.102;2024-02-16T06:28:47;12.20;99.90
6293;DHT22;3179;54.350;10.102;2024-02-16T06:31:14;12.20;99.90
6293;DHT22;3179;54.350;10.102;2024-02-16T06:33:41;12.30;99.90
6293;DHT22;3179;54.350;10.102;2024-02-16T06:36:08;12.30;99.90
6293;DHT22;3179;54.350;10.102;2024-02-16T06:38:36;12.20;99.90
6293;DHT22;3179;54.350;10.102;2024-02-16T06:41:04;12.20;99.90
6293;DHT22;3179;54.350;10.102;2024-02-16T06:43:31;12.30;99.90
6293;DHT22;3179;54.350;10.102;2024-02-16T06:45:58;12.30;99.90
6293;DHT22;3179;54.350;10.102;2024-02-16T06:48:24;12.30;99.90
6293;DHT22;3179;54.350;10.102;2024-02-16T06:50:51;12.30;99.90
6293;DHT22;3179;54.350;10.102;2024-02-16T06:53:19;12.30;99.90
6293;DHT22;3179;54.350;10.102;2024-02-16T06:55:47;12.20;99.90
6293;DHT22;3179;54.350;10.102;2024-02-16T06:58:14;12.30;99.90
6293;DHT22;3179;54.350;10.102;2024-02-16T07:00:41;12.30;99.90
6293;DHT22;3179;54.350;10.102;2024-02-16T07:03:08;12.20;99.90
6293;DHT22;3179;54.350;10.102;2024-02-16T07:05:36;12.20;99.90
6293;DHT22;3179;54.350;10.102;2024-02-16T07:08:03;12.20;99.90
6293;DHT22;3179;54.350;10.102;2024-02-16T07:10:31;12.20;99.90
6293;DHT22;3179;54.350;10.102;2024-02-16T07:13:00;12.20;99.90
6293;DHT22;3179;54.350;10.102;2024-02-16T07:15:26;12.20;99.90
6293;DHT22;3179;54.350;10.102;2024-02-16T07:17:53;12.30;99.90
6293;DHT22;3179;54.350;10.102;2024-02-16T07:20:20;12.20;99.90
6293;DHT22;3179;54.350;10.102;2024-02-16T07:22:47;12.20;99.90
6293;DHT22;3179;54.350;10.102;2024-02-16T07:25:17;12.30;99.90
6293;DHT22;3179;54.350;10.102;2024-02-16T07:27:44;12.20;99.90
6293;DHT22;3179;54.350;10.102;2024-02-16T07:30:13;12.20;99.90
6293;DHT22;3179;54.350;10.102;2024-02-16T07:32:39;12.30;99.90
6293;DHT22;3179;54.350;10.102;2024-02-16T07:35:06;12.30;99.90
6293;DHT22;3179;54.350;10.102;2024-02-16T07:37:35;12.30;99.90
6293;DHT22;3179;54.350;10.102;2024-02-16T07:40:03;12.30;99.90
6293;DHT22;3179;54.350;10.102;2024-02-16T07:42:31;12.30;99.90
6293;DHT22;3179;54.350;10.102;2024-02-16T07:44:58;12.30;99.90
6293;DHT22;3179;54.350;10.102;2024-02-16T07:47:26;12.30;99.90
6293;DHT22;3179;54.350;10.102;2024-02-16T07:49:54;12.30;99.90
6293;DHT22;3179;54.350;10.102;2024-02-16T07:52:20;12.30;99.90
6293;DHT22;3179;54.350;10.102;2024-02-16T07:54:47;12.40;99.90
6293;DHT22;3179;54.350;10.102;2024-02-16T07:57:17;12.40;99.90
6293;DHT22;3179;54.350;10.102;2024-02-16T07:59:44;12.40;99.90
6293;DHT22;3179;54.350;10.102;2024-02-16T08:02:10;12.40;99.90
6293;DHT22;3179;54.350;10.102;2024-02-16T08:04:42;12.40;99.90
6293;DHT22;3179;54.350;10.102;2024-02-16T08:07:10;12.40;99.90
6293;DHT22;3179;54.350;10.102;2024-02-16T08:09:37;12.40;99.90
6293;DHT22;3179;54.350;10.102;2024-02-16T08:12:05;12.40;99.90
6293;DHT22;3179;54.350;10.102;2024-02-16T08:14:32;12.40;99.90
6293;DHT22;3179;54.350;10.102;2024-02-16T08:16:59;12.40;99.90
6293;DHT22;3179;54.350;10.102;2024-02-16T08:19:31;12.40;99.90
6293;DHT22;3179;54.350;10.102;2024-02-16T08:22:00;12.40;99.90
6293;DHT22;3179;54.350;10.102;2024-02-16T08:24:27;12.40;99.90
6293;DHT22;3179;54.350;10.102;2024-02-16T08:26:54;12.40;99.90
6293;DHT22;3179;54.350;10.102;2024-02-16T08:29:22;12.40;99.90
6293;DHT22;3179;54.350;10.102;2024-02-16T08:31:49;12.40;99.90
6293;DHT22;3179;54.350;10.102;2024-02-16T08:34:16;12.40;99.90
6293;DHT22;3179;54.350;10.102;2024-02-16T08:36:44;12.40;99.90
6293;DHT22;3179;54.350;10.102;2024-02-16T08:39:12;12.40;99.90
6293;DHT22;3179;54.350;10.102;2024-02-16T08:41:40;12.50;99.90
6293;DHT22;3179;54.350;10.102;2024-02-16T08:44:07;12.50;99.90
6293;DHT22;3179;54.350;10.102;2024-02-16T08:46:35;12.50;99.90
6293;DHT22;3179;54.350;10.102;2024-02-16T08:49:02;12.50;99.90
6293;DHT22;3179;54.350;10.102;2024-02-16T08:51:29;12.50;99.90
6293;DHT22;3179;54.350;10.102;2024-02-16T08:53:58;12.60;99.90
6293;DHT22;3179;54.350;10.102;2024-02-16T08:56:26;12.60;99.90
6293;DHT22;3179;54.350;10.102;2024-02-16T08:58:53;12.70;99.90
6293;DHT22;3179;54.350;10.102;2024-02-16T09:01:30;12.70;99.90
6293;DHT22;3179;54.350;10.102;2024-02-16T09:03:57;12.70;99.90
6293;DHT22;3179;54.350;10.102;2024-02-16T09:06:24;12.70;99.90
6293;DHT22;3179;54.350;10.102;2024-02-16T09:08:51;12.70;99.90
6293;DHT22;3179;54.350;10.102;2024-02-16T09:11:18;12.70;99.90
6293;DHT22;3179;54.350;10.102;2024-02-16T09:13:46;12.70;99.90
6293;DHT22;3179;54.350;10.102;2024-02-16T09:16:14;12.80;99.90
6293;DHT22;3179;54.350;10.102;2024-02-16T09:18:40;12.80;99.90
6293;DHT22;3179;54.350;10.102;2024-02-16T09:21:08;12.80;99.90
6293;DHT22;3179;54.350;10.102;2024-02-16T09:23:36;12.80;99.90
6293;DHT22;3179;54.350;10.102;2024-02-16T09:26:03;12.80;99.90
6293;DHT22;3179;54.350;10.102;2024-02-16T09:28:30;12.80;99.90
6293;DHT22;3179;54.350;10.102;2024-02-16T09:30:58;12.80;99.90
6293;DHT22;3179;54.350;10.102;2024-02-16T09:33:25;12.80;99.90
6293;DHT22;3179;54.350;10.102;2024-02-16T09:35:53;12.90;99.90
6293;DHT22;3179;54.350;10.102;2024-02-16T09:38:20;12.90;99.90
6293;DHT22;3179;54.350;10.102;2024-02-16T09:40:47;12.90;99.90
6293;DHT22;3179;54.350;10.102;2024-02-16T09:43:26;12.90;99.90
6293;DHT22;3179;54.350;10.102;2024-02-16T09:45:54;12.90;99.90
6293;DHT22;3179;54.350;10.102;2024-02-16T09:48:24;12.90;99.90
6293;DHT22;3179;54.350;10.102;2024-02-16T09:50:53;12.90;99.90
6293;DHT22;3179;54.350;10.102;2024-02-16T09:53:21;12.90;99.90
6293;DHT22;3179;54.350;10.102;2024-02-16T09:55:50;12.90;99.90
6293;DHT22;3179;54.350;10.102;2024-02-16T09:58:18;12.90;99.90
6293;DHT22;3179;54.350;10.102;2024-02-16T10:00:49;13.00;99.90
6293;DHT22;3179;54.350;10.102;2024-02-16T10:03:28;13.00;99.90
6293;DHT22;3179;54.350;10.102;2024-02-16T10:06:04;13.00;99.90
6293;DHT22;3179;54.350;10.102;2024-02-16T10:08:32;13.00;99.90
6293;DHT22;3179;54.350;10.102;2024-02-16T10:11:03;13.00;99.90
6293;DHT22;3179;54.350;10.102;2024-02-16T10:13:30;13.10;99.90
6293;DHT22;3179;54.350;10.102;2024-02-16T10:16:06;13.10;99.90
6293;DHT22;3179;54.350;10.102;2024-02-16T10:18:36;13.10;99.90
6293;DHT22;3179;54.350;10.102;2024-02-16T10:21:03;13.20;99.90
6293;DHT22;3179;54.350;10.102;2024-02-16T10:23:30;13.30;99.90
6293;DHT22;3179;54.350;10.102;2024-02-16T10:25:58;13.30;99.90
6293;DHT22;3179;54.350;10.102;2024-02-16T10:28:26;13.30;99.90
6293;DHT22;3179;54.350;10.102;2024-02-16T10:30:57;13.30;99.90
6293;DHT22;3179;54.350;10.102;2024-02-16T10:33:25;13.30;99.90
6293;DHT22;3179;54.350;10.102;2024-02-16T10:35:55;13.30;99.90
6293;DHT22;3179;54.350;10.102;2024-02-16T10:38:23;13.40;99.90
6293;DHT22;3179;54.350;10.102;2024-02-16T10:40:51;13.40;99.90
6293;DHT22;3179;54.350;10.102;2024-02-16T10:43:20;13.40;99.90
6293;DHT22;3179;54.350;10.102;2024-02-16T10:45:47;13.40;99.90
6293;DHT22;3179;54.350;10.102;2024-02-16T10:48:18;13.40;99.90
6293;DHT22;3179;54.350;10.102;2024-02-16T10:50:45;13.40;99.90
6293;DHT22;3179;54.350;10.102;2024-02-16T10:53:19;13.40;99.90
6293;DHT22;3179;54.350;10.102;2024-02-16T10:55:49;13.50;99.90
6293;DHT22;3179;54.350;10.102;2024-02-16T10:58:17;13.40;99.90
6293;DHT22;3179;54.350;10.102;2024-02-16T11:00:51;13.40;99.90
6293;DHT22;3179;54.350;10.102;2024-02-16T11:03:21;13.40;99.90
6293;DHT22;3179;54.350;10.102;2024-02-16T11:05:50;13.40;99.90
6293;DHT22;3179;54.350;10.102;2024-02-16T11:08:19;13.40;99.90
6293;DHT22;3179;54.350;10.102;2024-02-16T11:10:59;13.40;99.90
6293;DHT22;3179;54.350;10.102;2024-02-16T11:13:32;13.40;99.90
6293;DHT22;3179;54.350;10.102;2024-02-16T11:16:01;13.40;99.90
6293;DHT22;3179;54.350;10.102;2024-02-16T11:18:29;13.40;99.90
6293;DHT22;3179;54.350;10.102;2024-02-16T11:21:00;13.40;99.90
6293;DHT22;3179;54.350;10.102;2024-02-16T11:23:29;13.40;99.90
6293;DHT22;3179;54.350;10.102;2024-02-16T11:26:00;13.50;99.90
6293;DHT22;3179;54.350;10.102;2024-02-16T11:28:28;13.50;99.90
6293;DHT22;3179;54.350;10.102;2024-02-16T11:30:57;13.50;99.90
6293;DHT22;3179;54.350;10.102;2024-02-16T11:33:24;13.50;99.90
6293;DHT22;3179;54.350;10.102;2024-02-16T11:35:53;13.50;99.90
6293;DHT22;3179;54.350;10.102;2024-02-16T11:38:20;13.60;99.90
6293;DHT22;3179;54.350;10.102;2024-02-16T11:40:55;13.60;99.90
6293;DHT22;3179;54.350;10.102;2024-02-16T11:43:22;13.60;99.90
6293;DHT22;3179;54.350;10.102;2024-02-16T11:45:49;13.70;99.90
6293;DHT22;3179;54.350;10.102;2024-02-16T11:48:19;13.70;99.90
6293;DHT22;3179;54.350;10.102;2024-02-16T11:50:47;13.70;99.90
6293;DHT22;3179;54.350;10.102;2024-02-16T11:53:18;13.80;99.90
6293;DHT22;3179;54.350;10.102;2024-02-16T11:55:49;13.80;99.90
6293;DHT22;3179;54.350;10.102;2024-02-16T11:58:20;13.80;99.90
6293;DHT22;3179;54.350;10.102;2024-02-16T12:00:48;13.80;99.90
6293;DHT22;3179;54.350;10.102;2024-02-16T12:03:18;13.80;99.90
6293;DHT22;3179;54.350;10.102;2024-02-16T12:05:50;13.80;99.90
6293;DHT22;3179;54.350;10.102;2024-02-16T12:08:17;13.80;99.90
6293;DHT22;3179;54.350;10.102;2024-02-16T12:10:44;13.80;99.90
6293;DHT22;3179;54.350;10.102;2024-02-16T12:13:12;13.90;99.90
6293;DHT22;3179;54.350;10.102;2024-02-16T12:15:40;14.00;99.90
6293;DHT22;3179;54.350;10.102;2024-02-16T12:18:07;14.00;99.90
6293;DHT22;3179;54.350;10.102;2024-02-16T12:20:34;14.10;99.90
6293;DHT22;3179;54.350;10.102;2024-02-16T12:23:11;14.10;99.90
6293;DHT22;3179;54.350;10.102;2024-02-16T12:25:38;14.20;99.90
6293;DHT22;3179;54.350;10.102;2024-02-16T12:28:05;14.20;99.90
6293;DHT22;3179;54.350;10.102;2024-02-16T12:30:33;14.20;99.90
6293;DHT22;3179;54.350;10.102;2024-02-16T12:33:02;14.30;99.90
6293;DHT22;3179;54.350;10.102;2024-02-16T12:35:28;14.30;99.90
6293;DHT22;3179;54.350;10.102;2024-02-16T12:37:55;14.30;99.90
6293;DHT22;3179;54.350;10.102;2024-02-16T12:40:22;14.30;99.90
6293;DHT22;3179;54.350;10.102;2024-02-16T12:42:49;14.30;99.90
6293;DHT22;3179;54.350;10.102;2024-02-16T12:45:16;14.30;99.90
6293;DHT22;3179;54.350;10.102;2024-02-16T12:47:43;14.30;99.90
6293;DHT22;3179;54.350;10.102;2024-02-16T12:50:12;14.30;99.90
6293;DHT22;3179;54.350;10.102;2024-02-16T12:52:39;14.30;99.90
6293;DHT22;3179;54.350;10.102;2024-02-16T12:55:07;14.40;99.90
6293;DHT22;3179;54.350;10.102;2024-02-16T12:57:35;14.40;99.90
6293;DHT22;3179;54.350;10.102;2024-02-16T13:00:04;14.40;99.90
6293;DHT22;3179;54.350;10.102;2024-02-16T13:02:31;14.40;99.90
6293;DHT22;3179;54.350;10.102;2024-02-16T13:04:58;14.50;99.90
6293;DHT22;3179;54.350;10.102;2024-02-16T13:07:26;14.50;99.90
6293;DHT22;3179;54.350;10.102;2024-02-16T13:09:53;14.60;99.90
6293;DHT22;3179;54.350;10.102;2024-02-16T13:12:20;14.60;99.90
6293;DHT22;3179;54.350;10.102;2024-02-16T13:14:49;14.60;99.90
6293;DHT22;3179;54.350;10.102;2024-02-16T13:17:16;14.60;99.90
6293;DHT22;3179;54.350;10.102;2024-02-16T13:19:43;14.60;99.90
6293;DHT22;3179;54.350;10.102;2024-02-16T13:22:10;14.60;99.90
6293;DHT22;3179;54.350;10.102;2024-02-16T13:24:38;14.50;99.90
6293;DHT22;3179;54.350;10.102;2024-02-16T13:27:07;14.60;99.90
6293;DHT22;3179;54.350;10.102;2024-02-16T13:29:34;14.60;99.90
6293;DHT22;3179;54.350;10.102;2024-02-16T13:32:01;14.50;99.90
6293;DHT22;3179;54.350;10.102;2024-02-16T13:34:29;14.60;99.90
6293;DHT22;3179;54.350;10.102;2024-02-16T13:36:56;14.50;99.90
6293;DHT22;3179;54.350;10.102;2024-02-16T13:39:23;14.50;99.90
6293;DHT22;3179;54.350;10.102;2024-02-16T13:41:54;14.50;99.90
6293;DHT22;3179;54.350;10.102;2024-02-16T13:44:23;14.50;99.90
6293;DHT22;3179;54.350;10.102;2024-02-16T13:46:50;14.40;99.90
6293;DHT22;3179;54.350;10.102;2024-02-16T13:49:16;14.40;99.90
6293;DHT22;3179;54.350;10.102;2024-02-16T13:51:43;14.40;99.90
6293;DHT22;3179;54.350;10.102;2024-02-16T13:54:11;14.40;99.90
6293;DHT22;3179;54.350;10.102;2024-02-16T13:56:37;14.40;99.90
6293;DHT22;3179;54.350;10.102;2024-02-16T13:59:06;14.40;99.90
6293;DHT22;3179;54.350;10.102;2024-02-16T14:01:33;14.40;99.90
6293;DHT22;3179;54.350;10.102;2024-02-16T14:04:02;14.40;99.90
6293;DHT22;3179;54.350;10.102;2024-02-16T14:06:38;14.40;99.90
6293;DHT22;3179;54.350;10.102;2024-02-16T14:09:05;14.40;99.90
6293;DHT22;3179;54.350;10.102;2024-02-16T14:11:34;14.30;99.90
6293;DHT22;3179;54.350;10.102;2024-02-16T14:14:01;14.30;99.90
6293;DHT22;3179;54.350;10.102;2024-02-16T14:16:29;14.30;99.90
6293;DHT22;3179;54.350;10.102;2024-02-16T14:18:56;14.30;99.90
6293;DHT22;3179;54.350;10.102;2024-02-16T14:21:23;14.30;99.90
6293;DHT22;3179;54.350;10.102;2024-02-16T14:23:50;14.30;99.90
6293;DHT22;3179;54.350;10.102;2024-02-16T14:26:17;14.30;99.90
6293;DHT22;3179;54.350;10.102;2024-02-16T14:28:45;14.20;99.90
6293;DHT22;3179;54.350;10.102;2024-02-16T14:31:12;14.20;99.90
6293;DHT22;3179;54.350;10.102;2024-02-16T14:33:41;14.20;99.90
6293;DHT22;3179;54.350;10.102;2024-02-16T14:36:09;14.20;99.90
6293;DHT22;3179;54.350;10.102;2024-02-16T14:38:37;14.10;99.90
6293;DHT22;3179;54.350;10.102;2024-02-16T14:41:04;14.10;99.90
6293;DHT22;3179;54.350;10.102;2024-02-16T14:43:31;14.10;99.90
6293;DHT22;3179;54.350;10.102;2024-02-16T14:45:58;14.10;99.90
6293;DHT22;3179;54.350;10.102;2024-02-16T14:48:25;14.10;99.90
6293;DHT22;3179;54.350;10.102;2024-02-16T14:50:54;14.10;99.90
6293;DHT22;3179;54.350;10.102;2024-02-16T14:53:21;14.00;99.90
6293;DHT22;3179;54.350;10.102;2024-02-16T14:55:48;14.00;99.90
6293;DHT22;3179;54.350;10.102;2024-02-16T14:58:16;14.00;99.90
6293;DHT22;3179;54.350;10.102;2024-02-16T15:00:42;14.00;99.90
6293;DHT22;3179;54.350;10.102;2024-02-16T15:03:09;13.90;99.90
6293;DHT22;3179;54.350;10.102;2024-02-16T15:05:36;13.90;99.90
6293;DHT22;3179;54.350;10.102;2024-02-16T15:08:05;13.90;99.90
6293;DHT22;3179;54.350;10.102;2024-02-16T15:10:32;13.90;99.90
6293;DHT22;3179;54.350;10.102;2024-02-16T15:12:59;13.80;99.90
6293;DHT22;3179;54.350;10.102;2024-02-16T15:15:26;13.70;99.90
6293;DHT22;3179;54.350;10.102;2024-02-16T15:17:53;13.60;99.90
6293;DHT22;3179;54.350;10.102;2024-02-16T15:20:21;13.60;99.90
6293;DHT22;3179;54.350;10.102;2024-02-16T15:22:49;13.50;99.90
6293;DHT22;3179;54.350;10.102;2024-02-16T15:25:17;13.50;99.90
6293;DHT22;3179;54.350;10.102;2024-02-16T15:27:44;13.50;99.90
6293;DHT22;3179;54.350;10.102;2024-02-16T15:30:11;13.40;99.90
6293;DHT22;3179;54.350;10.102;2024-02-16T15:32:38;13.30;99.90
6293;DHT22;3179;54.350;10.102;2024-02-16T15:35:06;13.30;99.90
6293;DHT22;3179;54.350;10.102;2024-02-16T15:37:34;13.20;99.90
6293;DHT22;3179;54.350;10.102;2024-02-16T15:40:01;13.20;99.90
6293;DHT22;3179;54.350;10.102;2024-02-16T15:42:29;13.20;99.90
6293;DHT22;3179;54.350;10.102;2024-02-16T15:44:56;13.20;99.90
6293;DHT22;3179;54.350;10.102;2024-02-16T15:47:24;13.20;99.90
6293;DHT22;3179;54.350;10.102;2024-02-16T15:49:51;13.20;99.90